Time;durP1;ratioP1;P1;durP2;ratioP2;P2;SDS_P1;SDS_P2;PMS_P1;PMS_P2;Temp;Humidity;BMP_temperature;BMP_pressure;BME280_temperature;BME280_humidity;BME280_pressure;Samples;Min_cycle;Max_cycle;Signal;HPM_P1;HPM_P2
2022/03/31 00:00:22;;;;;;;33.05;11.95;;;;;;;;;;5114163;28;20039;-67
2022/03/31 00:02:48;;;;;;;34.80;12.57;;;;;;;;;;5113402;28;20042;-67
2022/03/31 00:05:14;;;;;;;28.15;12.18;;;;;;;;;;5113280;28;20067;-67
2022/03/31 00:07:50;;;;;;;31.02;11.35;;;;;;;;;;5113468;28;20404;-68
2022/03/31 00:10:26;;;;;;;33.05;12.77;;;;;;;;;;5113388;28;20048;-67
2022/03/31 00:12:53;;;;;;;31.38;11.73;;;;;;;;;;5113581;28;20130;-67
2022/03/31 00:15:19;;;;;;;28.23;11.60;;;;;;;;;;5113653;28;20483;-67
2022/03/31 00:17:46;;;;;;;27.13;10.75;;;;;;;;;;5113297;28;20118;-67
2022/03/31 00:20:12;;;;;;;31.15;11.13;;;;;;;;;;5113321;28;20031;-67
2022/03/31 00:22:39;;;;;;;26.48;10.50;;;;;;;;;;5113380;28;20031;-67
2022/03/31 00:25:07;;;;;;;29.23;11.63;;;;;;;;;;5113379;28;20092;-67
2022/03/31 00:27:34;;;;;;;27.27;11.75;;;;;;;;;;5113331;28;20040;-66
2022/03/31 00:30:00;;;;;;;29.77;12.13;;;;;;;;;;5114932;28;20047;-67
2022/03/31 00:32:26;;;;;;;30.52;11.75;;;;;;;;;;5117502;28;20050;-67
2022/03/31 00:34:52;;;;;;;32.13;11.15;;;;;;;;;;5117511;28;20039;-67
2022/03/31 00:37:18;;;;;;;29.90;13.13;;;;;;;;;;5117701;28;20024;-67
2022/03/31 00:39:44;;;;;;;30.42;11.88;;;;;;;;;;5117707;28;20042;-67
2022/03/31 00:42:11;;;;;;;33.17;11.60;;;;;;;;;;5117464;28;20107;-67
2022/03/31 00:44:37;;;;;;;27.92;11.45;;;;;;;;;;5117225;28;20036;-67
2022/03/31 00:47:03;;;;;;;25.63;11.77;;;;;;;;;;5117315;28;20451;-67
2022/03/31 00:49:32;;;;;;;31.42;11.27;;;;;;;;;;5117047;28;20053;-67
2022/03/31 00:51:58;;;;;;;26.80;11.63;;;;;;;;;;5117593;28;20093;-67
2022/03/31 00:54:27;;;;;;;26.63;12.10;;;;;;;;;;5117376;28;20050;-67
2022/03/31 00:56:54;;;;;;;29.58;12.43;;;;;;;;;;5116862;28;20115;-67
2022/03/31 00:59:20;;;;;;;28.27;12.23;;;;;;;;;;5114398;28;20487;-68
2022/03/31 01:01:47;;;;;;;26.83;11.95;;;;;;;;;;5114224;28;20035;-68
2022/03/31 01:04:13;;;;;;;23.25;11.20;;;;;;;;;;5114805;28;20039;-67
2022/03/31 01:06:43;;;;;;;26.05;11.43;;;;;;;;;;5116250;28;20028;-68
2022/03/31 01:09:09;;;;;;;24.65;10.88;;;;;;;;;;5116740;28;20020;-67
2022/03/31 01:11:35;;;;;;;24.92;11.80;;;;;;;;;;5116772;28;20040;-67
2022/03/31 01:14:01;;;;;;;33.22;10.90;;;;;;;;;;5116490;28;20514;-67
2022/03/31 01:16:30;;;;;;;21.95;10.68;;;;;;;;;;5116858;28;20391;-67
2022/03/31 01:18:56;;;;;;;32.20;12.07;;;;;;;;;;5116503;28;20480;-67
2022/03/31 01:21:23;;;;;;;24.15;11.88;;;;;;;;;;5116323;28;20098;-67
2022/03/31 01:23:49;;;;;;;22.00;10.55;;;;;;;;;;5116811;28;20104;-67
2022/03/31 01:26:20;;;;;;;28.70;11.45;;;;;;;;;;5116690;28;20041;-67
2022/03/31 01:28:46;;;;;;;27.58;11.35;;;;;;;;;;5115822;28;20468;-67
2022/03/31 01:31:13;;;;;;;25.30;11.35;;;;;;;;;;5116208;28;20050;-67
2022/03/31 01:33:41;;;;;;;25.45;11.45;;;;;;;;;;5115878;28;20047;-67
2022/03/31 01:36:07;;;;;;;22.35;10.10;;;;;;;;;;5115839;28;20082;-67
2022/03/31 01:38:34;;;;;;;25.00;11.07;;;;;;;;;;5116025;28;20085;-68
2022/03/31 01:41:00;;;;;;;25.45;12.02;;;;;;;;;;5115189;28;20035;-67
2022/03/31 01:43:26;;;;;;;26.83;12.90;;;;;;;;;;5116083;28;20463;-67
2022/03/31 01:45:53;;;;;;;30.33;11.75;;;;;;;;;;5116199;28;20036;-67
2022/03/31 01:48:19;;;;;;;23.25;11.80;;;;;;;;;;5116550;28;20476;-67
2022/03/31 01:50:45;;;;;;;27.92;12.40;;;;;;;;;;5116073;28;20039;-67
2022/03/31 01:53:14;;;;;;;27.33;12.55;;;;;;;;;;5115945;28;20511;-67
2022/03/31 01:55:40;;;;;;;25.13;12.90;;;;;;;;;;5116006;28;20407;-67
2022/03/31 01:58:07;;;;;;;26.73;10.77;;;;;;;;;;5115908;28;20111;-67
2022/03/31 02:00:35;;;;;;;25.67;11.07;;;;;;;;;;5116128;28;20038;-67
2022/03/31 02:03:01;;;;;;;30.80;10.82;;;;;;;;;;5116066;28;20031;-67
2022/03/31 02:05:27;;;;;;;25.48;11.40;;;;;;;;;;5115970;28;20421;-67
2022/03/31 02:07:54;;;;;;;23.65;11.25;;;;;;;;;;5115662;28;20027;-67
2022/03/31 02:10:20;;;;;;;22.42;11.75;;;;;;;;;;5115713;28;20540;-67
2022/03/31 02:12:49;;;;;;;26.45;12.23;;;;;;;;;;5115675;28;20036;-67
2022/03/31 02:15:15;;;;;;;22.17;10.85;;;;;;;;;;5115723;28;20118;-67
2022/03/31 02:17:41;;;;;;;26.27;11.23;;;;;;;;;;5115487;28;20028;-67
2022/03/31 02:20:08;;;;;;;29.63;12.20;;;;;;;;;;5115489;28;20039;-67
2022/03/31 02:22:34;;;;;;;23.17;10.98;;;;;;;;;;5115501;28;20027;-67
2022/03/31 02:25:01;;;;;;;28.00;13.63;;;;;;;;;;5115489;28;20472;-67
2022/03/31 02:27:27;;;;;;;23.67;10.95;;;;;;;;;;5115486;28;20062;-67
2022/03/31 02:29:53;;;;;;;21.67;11.90;;;;;;;;;;5115425;28;20028;-67
2022/03/31 02:32:19;;;;;;;22.13;12.90;;;;;;;;;;5115043;28;20047;-67
2022/03/31 02:34:45;;;;;;;26.02;11.90;;;;;;;;;;5115408;28;20032;-67
2022/03/31 02:37:11;;;;;;;24.20;12.85;;;;;;;;;;5115734;28;20380;-67
2022/03/31 02:39:37;;;;;;;23.15;11.10;;;;;;;;;;5115291;28;20028;-67
2022/03/31 02:42:03;;;;;;;22.83;11.70;;;;;;;;;;5114918;28;20031;-67
2022/03/31 02:44:29;;;;;;;22.73;12.23;;;;;;;;;;5114593;28;20480;-67
2022/03/31 02:46:55;;;;;;;22.40;12.75;;;;;;;;;;5114713;28;20077;-67
2022/03/31 02:49:21;;;;;;;29.27;12.45;;;;;;;;;;5114977;28;20036;-67
2022/03/31 02:51:47;;;;;;;29.05;12.27;;;;;;;;;;5114858;28;20085;-67
2022/03/31 02:56:58;;;;;;;30.48;12.05;;;;;;;;;;5114758;28;20066;-67
2022/03/31 02:59:24;;;;;;;25.08;12.98;;;;;;;;;;5114755;28;20152;-67
2022/03/31 03:01:51;;;;;;;29.30;13.32;;;;;;;;;;5115109;28;20040;-67
2022/03/31 03:04:18;;;;;;;29.13;12.13;;;;;;;;;;5114659;28;20055;-67
2022/03/31 03:06:44;;;;;;;27.77;13.00;;;;;;;;;;5114550;28;20476;-67
2022/03/31 03:09:10;;;;;;;28.95;12.55;;;;;;;;;;5114406;28;20038;-67
2022/03/31 03:11:36;;;;;;;32.85;13.45;;;;;;;;;;5114273;28;20126;-67
2022/03/31 03:14:03;;;;;;;23.65;12.73;;;;;;;;;;5114178;28;20063;-67
2022/03/31 03:16:29;;;;;;;29.95;12.43;;;;;;;;;;5114435;28;20484;-67
2022/03/31 03:18:55;;;;;;;24.42;13.43;;;;;;;;;;5114696;28;20032;-67
2022/03/31 03:21:21;;;;;;;26.75;12.13;;;;;;;;;;5114040;28;20118;-67
2022/03/31 03:23:48;;;;;;;28.73;10.27;;;;;;;;;;5114343;28;20058;-67
2022/03/31 03:26:14;;;;;;;33.15;11.07;;;;;;;;;;5114192;28;20372;-67
2022/03/31 03:28:41;;;;;;;31.08;9.23;;;;;;;;;;5114403;28;20032;-67
2022/03/31 03:31:07;;;;;;;27.17;9.80;;;;;;;;;;5113958;28;20408;-67
2022/03/31 03:33:34;;;;;;;23.17;9.02;;;;;;;;;;5113948;28;20066;-67
2022/03/31 03:36:00;;;;;;;28.08;9.68;;;;;;;;;;5114101;28;20467;-67
2022/03/31 03:38:26;;;;;;;33.45;10.70;;;;;;;;;;5114165;28;20490;-67
2022/03/31 03:40:53;;;;;;;36.20;9.93;;;;;;;;;;5114025;28;20043;-67
2022/03/31 03:43:19;;;;;;;30.27;9.30;;;;;;;;;;5114054;28;20030;-67
2022/03/31 03:45:45;;;;;;;27.85;9.68;;;;;;;;;;5114009;28;20102;-67
2022/03/31 03:48:11;;;;;;;32.55;11.55;;;;;;;;;;5113663;28;20084;-67
2022/03/31 03:50:38;;;;;;;28.85;9.40;;;;;;;;;;5113781;28;20570;-67
2022/03/31 03:53:04;;;;;;;27.33;9.68;;;;;;;;;;5113912;28;20043;-67
2022/03/31 03:55:34;;;;;;;33.00;10.30;;;;;;;;;;5113848;28;20034;-67
2022/03/31 03:58:01;;;;;;;31.80;9.55;;;;;;;;;;5113883;28;20058;-67
2022/03/31 04:00:30;;;;;;;27.00;9.63;;;;;;;;;;5113634;28;20046;-67
2022/03/31 04:02:56;;;;;;;26.27;9.30;;;;;;;;;;5113670;28;20089;-67
2022/03/31 04:05:22;;;;;;;29.35;10.50;;;;;;;;;;5112962;28;20035;-67
2022/03/31 04:07:49;;;;;;;28.27;12.05;;;;;;;;;;5113712;28;20063;-67
2022/03/31 04:10:15;;;;;;;30.77;13.85;;;;;;;;;;5113616;28;20451;-67
2022/03/31 04:12:42;;;;;;;31.25;11.10;;;;;;;;;;5113571;28;20059;-67
2022/03/31 04:15:09;;;;;;;28.00;11.15;;;;;;;;;;5113503;28;20027;-67
2022/03/31 04:17:35;;;;;;;26.50;10.35;;;;;;;;;;5113361;28;20060;-67
2022/03/31 04:20:01;;;;;;;30.45;9.45;;;;;;;;;;5113251;28;20118;-67
2022/03/31 04:22:27;;;;;;;24.88;9.20;;;;;;;;;;5113478;28;20032;-67
2022/03/31 04:24:53;;;;;;;22.30;9.63;;;;;;;;;;5113485;28;20475;-67
2022/03/31 04:27:19;;;;;;;28.10;10.52;;;;;;;;;;5113504;28;20130;-67
2022/03/31 04:29:46;;;;;;;25.45;11.57;;;;;;;;;;5113445;28;20047;-67
2022/03/31 04:32:12;;;;;;;21.75;9.60;;;;;;;;;;5113224;28;20045;-67
2022/03/31 04:34:39;;;;;;;22.50;10.75;;;;;;;;;;5113207;28;20050;-67
2022/03/31 04:37:06;;;;;;;25.13;10.13;;;;;;;;;;5113485;28;20102;-67
2022/03/31 04:39:32;;;;;;;23.90;9.95;;;;;;;;;;5095140;28;20391;-67
2022/03/31 04:41:58;;;;;;;21.63;10.82;;;;;;;;;;5113159;28;20065;-67
2022/03/31 04:44:24;;;;;;;27.30;12.63;;;;;;;;;;5112937;28;20040;-67
2022/03/31 04:46:50;;;;;;;21.80;11.55;;;;;;;;;;5113220;28;20084;-67
2022/03/31 04:49:16;;;;;;;34.40;12.50;;;;;;;;;;5112933;28;20040;-67
2022/03/31 04:51:42;;;;;;;29.60;12.77;;;;;;;;;;5113105;28;20039;-67
2022/03/31 04:54:08;;;;;;;26.48;10.35;;;;;;;;;;5113252;28;20032;-67
2022/03/31 04:56:35;;;;;;;27.58;11.02;;;;;;;;;;5112965;28;20384;-67
2022/03/31 04:59:01;;;;;;;28.50;10.57;;;;;;;;;;5113235;28;20079;-67
2022/03/31 05:01:27;;;;;;;26.23;10.20;;;;;;;;;;5112880;28;20027;-67
2022/03/31 05:03:54;;;;;;;32.25;10.48;;;;;;;;;;5113155;28;20499;-67
2022/03/31 05:06:21;;;;;;;20.23;9.70;;;;;;;;;;5113303;28;20028;-67
2022/03/31 05:08:47;;;;;;;21.52;10.43;;;;;;;;;;5113034;28;20040;-67
2022/03/31 05:11:13;;;;;;;24.60;10.35;;;;;;;;;;5112725;28;20046;-67
2022/03/31 05:13:39;;;;;;;25.70;9.73;;;;;;;;;;5112783;28;20036;-67
2022/03/31 05:16:05;;;;;;;27.98;9.60;;;;;;;;;;5114530;28;20035;-67
2022/03/31 05:18:32;;;;;;;29.88;10.38;;;;;;;;;;5116729;28;20035;-67
2022/03/31 05:20:58;;;;;;;25.17;9.85;;;;;;;;;;5116604;28;20464;-67
2022/03/31 05:23:24;;;;;;;18.70;8.88;;;;;;;;;;5116531;28;20035;-67
2022/03/31 05:25:50;;;;;;;23.58;9.93;;;;;;;;;;5116250;28;20097;-67
2022/03/31 05:28:16;;;;;;;25.45;10.10;;;;;;;;;;5116420;28;20036;-67
2022/03/31 05:30:43;;;;;;;21.65;9.43;;;;;;;;;;5116356;28;20040;-67
2022/03/31 05:33:10;;;;;;;22.58;10.20;;;;;;;;;;5116197;28;20052;-67
2022/03/31 05:35:36;;;;;;;19.45;9.55;;;;;;;;;;5116194;28;20110;-67
2022/03/31 05:38:03;;;;;;;24.20;10.80;;;;;;;;;;5116332;28;20055;-67
2022/03/31 05:40:29;;;;;;;26.13;11.52;;;;;;;;;;5116169;28;20038;-67
2022/03/31 05:42:55;;;;;;;17.30;10.18;;;;;;;;;;5116158;28;20135;-67
2022/03/31 05:45:22;;;;;;;24.27;11.20;;;;;;;;;;5116236;28;20078;-67
2022/03/31 05:47:48;;;;;;;25.48;11.45;;;;;;;;;;5116091;28;20384;-67
2022/03/31 05:50:14;;;;;;;22.88;9.82;;;;;;;;;;5115749;28;20044;-67
2022/03/31 05:52:42;;;;;;;27.33;11.18;;;;;;;;;;5115548;28;20032;-67
2022/03/31 05:55:15;;;;;;;31.90;11.95;;;;;;;;;;5116164;28;20176;-67
2022/03/31 05:57:41;;;;;;;24.63;10.07;;;;;;;;;;5116375;28;20038;-67
2022/03/31 06:00:09;;;;;;;24.45;10.02;;;;;;;;;;5115614;28;20035;-67
2022/03/31 06:02:35;;;;;;;21.63;9.90;;;;;;;;;;5115588;28;20088;-67
2022/03/31 06:05:01;;;;;;;26.80;10.98;;;;;;;;;;5115704;28;20491;-67
2022/03/31 06:07:27;;;;;;;28.48;11.20;;;;;;;;;;5115763;28;20123;-66
2022/03/31 06:09:53;;;;;;;28.38;10.48;;;;;;;;;;5115621;28;20111;-66
2022/03/31 06:12:19;;;;;;;21.40;9.20;;;;;;;;;;5115698;28;20043;-66
2022/03/31 06:14:46;;;;;;;25.13;10.20;;;;;;;;;;5115860;28;20065;-66
2022/03/31 06:17:12;;;;;;;31.52;10.68;;;;;;;;;;5115634;28;20080;-66
2022/03/31 06:19:38;;;;;;;27.75;10.00;;;;;;;;;;5115620;28;20509;-67
2022/03/31 06:22:04;;;;;;;31.55;11.77;;;;;;;;;;5115391;28;20047;-67
2022/03/31 06:24:30;;;;;;;35.63;11.98;;;;;;;;;;5115450;28;20024;-67
2022/03/31 06:26:57;;;;;;;29.48;11.73;;;;;;;;;;5114005;28;20108;-67
2022/03/31 06:29:25;;;;;;;24.67;10.27;;;;;;;;;;5114955;28;20192;-67
2022/03/31 06:31:51;;;;;;;20.15;9.25;;;;;;;;;;5114307;28;20040;-67
2022/03/31 06:34:18;;;;;;;28.65;8.60;;;;;;;;;;5115272;28;20035;-67
2022/03/31 06:36:45;;;;;;;16.98;6.95;;;;;;;;;;5115186;28;20032;-66
2022/03/31 06:39:11;;;;;;;14.30;6.88;;;;;;;;;;5114812;28;20154;-67
2022/03/31 06:41:37;;;;;;;19.52;7.22;;;;;;;;;;5115087;28;20035;-67
2022/03/31 06:44:04;;;;;;;24.00;8.18;;;;;;;;;;5114482;28;20110;-67
2022/03/31 06:46:31;;;;;;;16.83;6.40;;;;;;;;;;5115125;28;20031;-67
2022/03/31 06:48:57;;;;;;;16.15;6.43;;;;;;;;;;5115087;28;20066;-67
2022/03/31 06:51:23;;;;;;;18.50;5.43;;;;;;;;;;5114909;28;20044;-67
2022/03/31 06:53:49;;;;;;;12.02;4.55;;;;;;;;;;5114894;28;20028;-67
2022/03/31 06:56:16;;;;;;;15.50;4.90;;;;;;;;;;5114627;28;20028;-67
2022/03/31 06:58:44;;;;;;;15.70;4.93;;;;;;;;;;5114930;28;20028;-67
2022/03/31 07:01:10;;;;;;;11.60;5.68;;;;;;;;;;5114528;28;20028;-67
2022/03/31 07:03:36;;;;;;;15.88;3.63;;;;;;;;;;5114264;28;20114;-68
2022/03/31 07:06:03;;;;;;;13.20;3.50;;;;;;;;;;5114329;28;20028;-67
2022/03/31 07:08:30;;;;;;;10.65;4.28;;;;;;;;;;5114607;28;20034;-67
2022/03/31 07:10:56;;;;;;;11.25;3.50;;;;;;;;;;5114515;28;20071;-68
2022/03/31 07:13:22;;;;;;;10.68;3.10;;;;;;;;;;5114559;28;20027;-66
2022/03/31 07:15:48;;;;;;;10.63;3.70;;;;;;;;;;5114418;28;20035;-67
2022/03/31 07:18:14;;;;;;;13.65;3.42;;;;;;;;;;5113708;28;20076;-67
2022/03/31 07:20:41;;;;;;;10.40;2.88;;;;;;;;;;5114158;28;20046;-67
2022/03/31 07:23:07;;;;;;;13.65;2.97;;;;;;;;;;5113997;28;20031;-68
2022/03/31 07:25:33;;;;;;;9.38;2.60;;;;;;;;;;5113827;28;20102;-67
2022/03/31 07:27:59;;;;;;;10.18;2.50;;;;;;;;;;5113742;28;20063;-67
2022/03/31 07:30:25;;;;;;;7.95;2.78;;;;;;;;;;5113540;28;20587;-67
2022/03/31 07:32:53;;;;;;;12.27;2.67;;;;;;;;;;5113519;28;20127;-67
2022/03/31 07:35:21;;;;;;;10.68;2.83;;;;;;;;;;5114002;28;20031;-67
2022/03/31 07:37:47;;;;;;;9.43;2.67;;;;;;;;;;5113709;28;20111;-67
2022/03/31 07:40:13;;;;;;;7.22;2.40;;;;;;;;;;5113474;28;20098;-67
2022/03/31 07:42:39;;;;;;;8.43;2.72;;;;;;;;;;5113513;28;20044;-67
2022/03/31 07:45:06;;;;;;;11.23;2.63;;;;;;;;;;5113821;28;20088;-67
2022/03/31 07:47:32;;;;;;;10.55;2.42;;;;;;;;;;5113620;28;20035;-66
2022/03/31 07:49:58;;;;;;;13.30;2.88;;;;;;;;;;5113549;28;20483;-67
2022/03/31 07:52:24;;;;;;;9.80;2.60;;;;;;;;;;5113140;28;20047;-67
2022/03/31 07:54:50;;;;;;;8.73;2.50;;;;;;;;;;5113252;28;20100;-67
2022/03/31 07:57:16;;;;;;;6.50;2.53;;;;;;;;;;5113793;28;20035;-66
2022/03/31 07:59:42;;;;;;;8.65;3.35;;;;;;;;;;5113942;28;20096;-67
2022/03/31 08:02:09;;;;;;;6.40;2.63;;;;;;;;;;5113327;28;20518;-67
2022/03/31 08:04:35;;;;;;;10.07;3.72;;;;;;;;;;5113605;28;20480;-67
2022/03/31 08:07:01;;;;;;;10.57;2.50;;;;;;;;;;5113495;28;20035;-67
2022/03/31 08:09:27;;;;;;;8.02;2.50;;;;;;;;;;5113609;28;20035;-67
2022/03/31 08:11:53;;;;;;;10.13;4.28;;;;;;;;;;5113008;28;20118;-67
2022/03/31 08:14:21;;;;;;;9.25;3.20;;;;;;;;;;5113061;28;20484;-67
2022/03/31 08:16:49;;;;;;;12.82;2.90;;;;;;;;;;5113402;28;20031;-66
2022/03/31 08:19:16;;;;;;;5.68;2.70;;;;;;;;;;5112144;28;20426;-67
2022/03/31 08:21:43;;;;;;;5.82;2.50;;;;;;;;;;5112001;28;20028;-66
2022/03/31 08:24:09;;;;;;;9.00;2.75;;;;;;;;;;5111632;28;20094;-67
2022/03/31 08:26:37;;;;;;;8.35;2.80;;;;;;;;;;5113210;28;20024;-67
2022/03/31 08:29:04;;;;;;;6.78;2.47;;;;;;;;;;5113379;28;20537;-67
2022/03/31 08:31:30;;;;;;;7.78;2.72;;;;;;;;;;5113199;28;20048;-67
2022/03/31 08:33:56;;;;;;;7.20;2.03;;;;;;;;;;5112887;28;20488;-67
2022/03/31 08:36:22;;;;;;;5.10;1.67;;;;;;;;;;5112980;28;20040;-67
2022/03/31 08:38:48;;;;;;;7.68;2.05;;;;;;;;;;5112795;28;20043;-67
2022/03/31 08:41:15;;;;;;;6.03;2.42;;;;;;;;;;5112744;28;20043;-67
2022/03/31 08:43:42;;;;;;;7.13;3.17;;;;;;;;;;5112814;28;20476;-67
2022/03/31 08:46:10;;;;;;;7.57;2.45;;;;;;;;;;5112581;28;20040;-67
2022/03/31 08:48:37;;;;;;;8.18;3.03;;;;;;;;;;5112598;28;20080;-67
2022/03/31 08:51:04;;;;;;;8.77;3.17;;;;;;;;;;5114192;28;20092;-67
2022/03/31 08:53:30;;;;;;;9.80;3.40;;;;;;;;;;5116650;28;20028;-67
2022/03/31 08:55:56;;;;;;;11.75;3.75;;;;;;;;;;5116164;28;20391;-67
2022/03/31 08:58:22;;;;;;;15.55;10.05;;;;;;;;;;5115956;28;20031;-68
2022/03/31 09:00:48;;;;;;;21.10;18.27;;;;;;;;;;5115286;28;20040;-67
2022/03/31 09:03:16;;;;;;;9.70;4.78;;;;;;;;;;5114978;28;20023;-67
2022/03/31 09:05:45;;;;;;;14.45;5.50;;;;;;;;;;5116944;28;20380;-67
2022/03/31 09:08:12;;;;;;;11.73;4.72;;;;;;;;;;5116902;28;20484;-66
2022/03/31 09:10:42;;;;;;;10.88;3.28;;;;;;;;;;5116388;28;20070;-67
2022/03/31 09:13:23;;;;;;;5.60;2.33;;;;;;;;;;5116697;28;20031;-66
2022/03/31 09:15:53;;;;;;;8.90;3.28;;;;;;;;;;5116563;28;20119;-66
2022/03/31 09:18:20;;;;;;;9.73;3.60;;;;;;;;;;5116442;28;20447;-67
2022/03/31 09:20:47;;;;;;;8.27;3.53;;;;;;;;;;5116926;28;20074;-67
2022/03/31 09:23:17;;;;;;;6.50;3.00;;;;;;;;;;5116973;28;20024;-68
2022/03/31 09:25:44;;;;;;;7.55;2.95;;;;;;;;;;5116651;28;20088;-67
2022/03/31 09:28:19;;;;;;;8.50;2.95;;;;;;;;;;5116774;28;20047;-67
2022/03/31 09:30:46;;;;;;;7.10;3.63;;;;;;;;;;5116582;28;20050;-67
2022/03/31 09:33:12;;;;;;;7.53;3.35;;;;;;;;;;5116376;28;20567;-66
2022/03/31 09:35:39;;;;;;;9.25;3.47;;;;;;;;;;5116525;28;20035;-67
2022/03/31 09:38:11;;;;;;;9.02;3.38;;;;;;;;;;5116431;28;20035;-66
2022/03/31 09:40:37;;;;;;;6.38;3.70;;;;;;;;;;5116301;28;20043;-67
2022/03/31 09:43:03;;;;;;;8.23;3.58;;;;;;;;;;5116447;28;20495;-67
2022/03/31 09:45:38;;;;;;;8.48;3.97;;;;;;;;;;5116516;28;20024;-67
2022/03/31 09:48:04;;;;;;;8.15;3.22;;;;;;;;;;5116318;28;20040;-67
2022/03/31 09:50:34;;;;;;;8.13;3.38;;;;;;;;;;5116348;28;20040;-67
2022/03/31 09:53:00;;;;;;;9.90;2.58;;;;;;;;;;5116114;28;20035;-67
2022/03/31 09:55:26;;;;;;;5.38;2.00;;;;;;;;;;5116370;28;20418;-66
2022/03/31 09:57:53;;;;;;;2.78;1.52;;;;;;;;;;5116225;28;20476;-67
2022/03/31 10:00:21;;;;;;;8.27;1.88;;;;;;;;;;5116411;28;20055;-67
2022/03/31 10:02:47;;;;;;;3.55;1.52;;;;;;;;;;5114867;28;20071;-67
2022/03/31 10:05:15;;;;;;;5.50;1.50;;;;;;;;;;5115929;28;20030;-67
2022/03/31 10:07:41;;;;;;;4.18;1.80;;;;;;;;;;5115848;28;20066;-66
2022/03/31 10:10:08;;;;;;;4.55;2.13;;;;;;;;;;5115944;28;20045;-67
2022/03/31 10:12:38;;;;;;;8.27;2.28;;;;;;;;;;5116085;28;20028;-67
2022/03/31 10:15:13;;;;;;;4.43;1.50;;;;;;;;;;5115592;28;20035;-67
2022/03/31 10:17:42;;;;;;;2.22;1.38;;;;;;;;;;5115334;28;20055;-67
2022/03/31 10:20:12;;;;;;;3.88;1.27;;;;;;;;;;5115742;28;20035;-67
2022/03/31 10:25:23;;;;;;;4.55;1.90;;;;;;;;;;5115724;28;20089;-67
2022/03/31 10:27:50;;;;;;;3.55;1.40;;;;;;;;;;5115343;28;20106;-67
2022/03/31 10:30:16;;;;;;;2.45;1.38;;;;;;;;;;5115327;28;20457;-67
2022/03/31 10:32:52;;;;;;;2.53;1.20;;;;;;;;;;5115000;28;20047;-67
2022/03/31 10:35:25;;;;;;;1.92;1.08;;;;;;;;;;5115322;28;20059;-68
2022/03/31 10:37:51;;;;;;;3.85;1.48;;;;;;;;;;5115114;28;20028;-68
2022/03/31 10:40:28;;;;;;;4.45;1.58;;;;;;;;;;5115202;28;20392;-68
2022/03/31 10:42:55;;;;;;;3.42;1.45;;;;;;;;;;5114961;28;20043;-67
2022/03/31 10:45:21;;;;;;;3.65;1.42;;;;;;;;;;5114803;28;20032;-67
2022/03/31 10:47:50;;;;;;;3.58;1.38;;;;;;;;;;5114616;28;20038;-67
2022/03/31 10:50:28;;;;;;;4.88;1.52;;;;;;;;;;5115155;28;20044;-67
2022/03/31 10:53:12;;;;;;;3.33;1.50;;;;;;;;;;5114922;28;20034;-68
2022/03/31 10:55:43;;;;;;;2.15;1.25;;;;;;;;;;5115019;28;20089;-67
2022/03/31 10:58:20;;;;;;;3.53;1.10;;;;;;;;;;5114801;28;20031;-67
2022/03/31 11:00:48;;;;;;;1.08;0.55;;;;;;;;;;5113678;28;20123;-67
2022/03/31 11:03:16;;;;;;;2.63;0.75;;;;;;;;;;5114750;28;20036;-67
2022/03/31 11:05:42;;;;;;;1.13;0.40;;;;;;;;;;5114927;28;20032;-67
2022/03/31 11:08:09;;;;;;;4.00;0.57;;;;;;;;;;5115018;28;20039;-67
2022/03/31 11:10:45;;;;;;;2.38;0.70;;;;;;;;;;5114418;28;20400;-67
2022/03/31 11:13:12;;;;;;;0.75;0.45;;;;;;;;;;5114455;28;20028;-67
2022/03/31 11:15:38;;;;;;;3.95;0.60;;;;;;;;;;5114430;28;20056;-66
2022/03/31 11:18:04;;;;;;;3.10;0.50;;;;;;;;;;5113866;28;20032;-67
2022/03/31 11:20:31;;;;;;;4.00;0.77;;;;;;;;;;5114275;28;20434;-67
2022/03/31 11:23:03;;;;;;;2.47;0.80;;;;;;;;;;5114368;28;20089;-67
2022/03/31 11:25:30;;;;;;;2.53;0.90;;;;;;;;;;5114369;28;20093;-67
2022/03/31 11:27:58;;;;;;;1.77;0.73;;;;;;;;;;5114291;28;20031;-67
2022/03/31 11:30:25;;;;;;;2.17;0.90;;;;;;;;;;5114147;28;20040;-67
2022/03/31 11:32:52;;;;;;;4.72;0.80;;;;;;;;;;5113879;28;20032;-67
2022/03/31 11:35:20;;;;;;;2.80;1.15;;;;;;;;;;5114486;28;20384;-67
2022/03/31 11:37:51;;;;;;;1.05;0.57;;;;;;;;;;5114209;28;20038;-67
2022/03/31 11:40:27;;;;;;;1.73;0.65;;;;;;;;;;5113931;28;20123;-67
2022/03/31 11:42:54;;;;;;;0.85;0.50;;;;;;;;;;5113807;28;20380;-67
2022/03/31 11:45:33;;;;;;;1.13;0.60;;;;;;;;;;5114045;28;20063;-67
2022/03/31 11:48:00;;;;;;;1.38;0.50;;;;;;;;;;5114036;28;20349;-67
2022/03/31 11:50:26;;;;;;;1.48;0.70;;;;;;;;;;5113660;28;20130;-66
2022/03/31 11:52:53;;;;;;;1.58;0.60;;;;;;;;;;5113709;28;20122;-68
2022/03/31 11:55:23;;;;;;;0.70;0.40;;;;;;;;;;5113506;28;20036;-67
2022/03/31 11:57:53;;;;;;;4.10;0.85;;;;;;;;;;5113928;28;20412;-68
2022/03/31 12:00:19;;;;;;;2.45;0.82;;;;;;;;;;5113657;28;20039;-69
2022/03/31 12:02:55;;;;;;;2.92;0.75;;;;;;;;;;5113640;28;20036;-68
2022/03/31 12:05:21;;;;;;;0.88;0.50;;;;;;;;;;5113871;28;20408;-68
2022/03/31 12:07:48;;;;;;;2.25;0.70;;;;;;;;;;5113786;28;20066;-68
2022/03/31 12:10:14;;;;;;;2.47;0.68;;;;;;;;;;5113512;28;20090;-70
2022/03/31 12:12:50;;;;;;;1.77;0.70;;;;;;;;;;5113413;28;20403;-69
2022/03/31 12:15:24;;;;;;;2.97;0.75;;;;;;;;;;5113627;28;20528;-67
2022/03/31 12:18:02;;;;;;;3.40;0.80;;;;;;;;;;5113314;28;20035;-67
2022/03/31 12:20:29;;;;;;;3.88;1.00;;;;;;;;;;5113294;28;20456;-68
2022/03/31 12:22:55;;;;;;;1.88;1.10;;;;;;;;;;5113059;28;20479;-68
2022/03/31 12:25:27;;;;;;;2.00;1.40;;;;;;;;;;5112703;28;20034;-69
2022/03/31 12:27:53;;;;;;;1.67;1.20;;;;;;;;;;5113617;28;20389;-68
2022/03/31 12:30:19;;;;;;;1.15;0.73;;;;;;;;;;5112828;28;20305;-69
2022/03/31 12:32:47;;;;;;;1.35;0.80;;;;;;;;;;5112779;28;20051;-68
2022/03/31 12:35:13;;;;;;;1.25;0.65;;;;;;;;;;5112424;28;20036;-68
2022/03/31 12:37:40;;;;;;;0.60;0.50;;;;;;;;;;5112302;28;20399;-69
2022/03/31 12:40:07;;;;;;;1.55;0.70;;;;;;;;;;5112573;28;20040;-68
2022/03/31 12:42:35;;;;;;;1.10;0.70;;;;;;;;;;5112713;28;20060;-68
2022/03/31 12:45:10;;;;;;;1.30;0.80;;;;;;;;;;5113290;28;20039;-68
2022/03/31 12:47:41;;;;;;;2.00;0.80;;;;;;;;;;5112544;28;20034;-69
2022/03/31 12:50:15;;;;;;;4.07;0.90;;;;;;;;;;5112949;28;20499;-67
2022/03/31 12:52:51;;;;;;;1.73;0.95;;;;;;;;;;5113307;28;20036;-67
2022/03/31 12:55:17;;;;;;;2.33;0.98;;;;;;;;;;5113117;28;20039;-67
2022/03/31 12:57:54;;;;;;;2.35;1.20;;;;;;;;;;5113075;28;20032;-67
2022/03/31 13:00:21;;;;;;;2.15;0.70;;;;;;;;;;5112710;28;20032;-67
2022/03/31 13:02:48;;;;;;;2.08;1.00;;;;;;;;;;5112889;28;20449;-67
2022/03/31 13:05:22;;;;;;;1.42;0.65;;;;;;;;;;5112713;28;20407;-67
2022/03/31 13:07:50;;;;;;;1.63;0.80;;;;;;;;;;5112828;28;20032;-67
2022/03/31 13:10:17;;;;;;;2.88;1.30;;;;;;;;;;5111907;28;20043;-67
2022/03/31 13:12:44;;;;;;;3.45;2.25;;;;;;;;;;5112435;28;20036;-67
2022/03/31 13:15:12;;;;;;;2.85;1.30;;;;;;;;;;5113094;28;20028;-67
2022/03/31 13:17:39;;;;;;;2.38;1.20;;;;;;;;;;5112636;28;20552;-67
2022/03/31 13:20:06;;;;;;;3.40;1.00;;;;;;;;;;5112253;28;20079;-67
2022/03/31 13:22:32;;;;;;;1.52;0.82;;;;;;;;;;5111389;28;20032;-68
2022/03/31 13:24:59;;;;;;;3.13;0.93;;;;;;;;;;5112683;28;20441;-68
2022/03/31 13:27:26;;;;;;;5.07;1.02;;;;;;;;;;5111943;28;20054;-66
2022/03/31 13:29:53;;;;;;;1.20;0.70;;;;;;;;;;5112619;28;20494;-67
2022/03/31 13:32:19;;;;;;;1.10;0.70;;;;;;;;;;5112471;28;20117;-67
2022/03/31 13:34:46;;;;;;;4.18;0.90;;;;;;;;;;5112670;28;20110;-68
2022/03/31 13:37:13;;;;;;;3.85;0.70;;;;;;;;;;5114536;28;20070;-67
2022/03/31 13:39:39;;;;;;;2.92;0.70;;;;;;;;;;5116379;28;20045;-68
2022/03/31 13:42:06;;;;;;;1.20;0.60;;;;;;;;;;5116625;28;20027;-68
2022/03/31 13:44:32;;;;;;;3.95;0.75;;;;;;;;;;5116484;28;20089;-67
2022/03/31 13:46:59;;;;;;;1.35;0.73;;;;;;;;;;5116219;28;20093;-67
2022/03/31 13:49:28;;;;;;;3.13;0.93;;;;;;;;;;5116179;28;20392;-67
2022/03/31 13:51:54;;;;;;;1.27;0.77;;;;;;;;;;5116063;28;20448;-67
2022/03/31 13:54:21;;;;;;;1.98;1.08;;;;;;;;;;5115440;28;20032;-70
2022/03/31 13:56:48;;;;;;;1.15;0.70;;;;;;;;;;5114617;28;20043;-72
2022/03/31 14:02:00;;;;;;;1.70;0.73;;;;;;;;;;5124005;27;20555;-68
2022/03/31 14:04:26;;;;;;;2.03;0.90;;;;;;;;;;5125061;27;20472;-69
2022/03/31 14:06:53;;;;;;;5.53;0.95;;;;;;;;;;5125115;27;20027;-76
2022/03/31 14:09:22;;;;;;;3.10;1.00;;;;;;;;;;5126290;27;20027;-69
2022/03/31 14:11:48;;;;;;;1.98;0.60;;;;;;;;;;5124328;27;20059;-68
2022/03/31 14:14:15;;;;;;;2.10;1.00;;;;;;;;;;5124645;27;20027;-69
2022/03/31 14:16:44;;;;;;;1.23;0.60;;;;;;;;;;5113897;27;20176;-67
2022/03/31 14:19:11;;;;;;;2.50;1.00;;;;;;;;;;5114699;28;20038;-68
2022/03/31 14:21:41;;;;;;;2.67;0.85;;;;;;;;;;5114705;28;20074;-68
2022/03/31 14:24:08;;;;;;;1.88;1.00;;;;;;;;;;5115774;28;20035;-68
2022/03/31 14:26:35;;;;;;;1.85;1.00;;;;;;;;;;5115520;28;20030;-68
2022/03/31 14:29:01;;;;;;;2.50;0.98;;;;;;;;;;5114922;28;20038;-67
2022/03/31 14:31:28;;;;;;;4.10;1.33;;;;;;;;;;5114690;28;20541;-67
2022/03/31 14:33:54;;;;;;;2.83;1.23;;;;;;;;;;5113364;28;20144;-68
2022/03/31 14:36:21;;;;;;;3.78;1.48;;;;;;;;;;5113865;28;20037;-68
2022/03/31 14:38:47;;;;;;;2.38;1.48;;;;;;;;;;5115071;28;20122;-73